Time;durP1;ratioP1;P1;durP2;ratioP2;P2;SDS_P1;SDS_P2;PMS_P1;PMS_P2;Temp;Humidity;BMP_temperature;BMP_pressure;BME280_temperature;BME280_humidity;BME280_pressure;Samples;Min_cycle;Max_cycle;Signal;HPM_P1;HPM_P2
2023/07/02 00:01:48;;;;;;;39.63;35.75;;;23.40;98.50;;;;;;4937146;29;20043;-80
2023/07/02 00:04:16;;;;;;;42.47;38.42;;;23.40;98.60;;;;;;4920183;29;20046;-80
2023/07/02 00:06:48;;;;;;;41.65;37.55;;;23.30;98.60;;;;;;4919806;29;20024;-80
2023/07/02 00:09:15;;;;;;;41.97;37.60;;;23.30;98.60;;;;;;4936869;29;20031;-80
2023/07/02 00:11:45;;;;;;;;;;;23.30;99.30;;;;;;4937458;29;20040;-80
2023/07/02 00:14:12;;;;;;;42.15;37.95;;;23.10;99.70;;;;;;4919632;29;19997;-80
2023/07/02 00:16:40;;;;;;;42.75;38.45;;;23.00;99.80;;;;;;4919222;29;20039;-80
2023/07/02 00:19:06;;;;;;;44.25;39.63;;;23.00;99.90;;;;;;4919732;29;20130;-79
2023/07/02 00:21:33;;;;;;;44.47;39.73;;;23.00;99.90;;;;;;4936726;29;20536;-80
2023/07/02 00:24:00;;;;;;;44.45;39.17;;;23.00;99.90;;;;;;4936627;29;20031;-80
2023/07/02 00:26:26;;;;;;;;;;;23.00;99.90;;;;;;4920496;29;20035;-79
2023/07/02 00:28:54;;;;;;;42.78;38.38;;;23.00;99.90;;;;;;4904079;29;19911;-79
2023/07/02 00:31:20;;;;;;;41.80;37.25;;;22.90;99.90;;;;;;4919052;29;21080;-80
2023/07/02 00:33:46;;;;;;;41.00;36.87;;;22.90;99.90;;;;;;4936928;29;20103;-79
2023/07/02 00:36:14;;;;;;;41.77;37.37;;;22.90;99.90;;;;;;4919300;29;20042;-80
2023/07/02 00:38:45;;;;;;;40.35;35.97;;;22.90;99.90;;;;;;4919471;29;20126;-80
2023/07/02 00:41:12;;;;;;;41.47;37.15;;;22.90;99.90;;;;;;4919401;29;20059;-80
2023/07/02 00:43:43;;;;;;;40.30;35.97;;;22.90;99.90;;;;;;4919400;29;20035;-80
2023/07/02 00:46:19;;;;;;;37.45;33.55;;;22.90;99.90;;;;;;4918914;29;20063;-80
2023/07/02 00:48:55;;;;;;;41.80;36.60;;;22.80;99.90;;;;;;4919473;29;20034;-80
2023/07/02 00:51:27;;;;;;;40.90;36.38;;;22.80;99.90;;;;;;4919232;29;20070;-80
2023/07/02 00:53:55;;;;;;;38.47;34.47;;;22.80;99.90;;;;;;4936752;29;20083;-80
2023/07/02 00:56:22;;;;;;;39.78;35.65;;;22.80;99.90;;;;;;4935760;29;20098;-80
2023/07/02 00:58:50;;;;;;;;;;;22.80;99.90;;;;;;4919475;29;20119;-80
2023/07/02 01:01:33;;;;;;;37.42;33.63;;;22.70;99.90;;;;;;4936471;29;20379;-79
2023/07/02 01:04:07;;;;;;;38.08;33.97;;;22.60;99.90;;;;;;4919121;29;20078;-79
2023/07/02 01:06:35;;;;;;;38.97;34.78;;;22.60;99.90;;;;;;4927897;29;20045;-80
2023/07/02 01:09:05;;;;;;;38.90;35.15;;;22.60;99.90;;;;;;4918415;29;20118;-80
2023/07/02 01:11:41;;;;;;;39.30;35.30;;;22.60;99.90;;;;;;4918873;29;20055;-80
2023/07/02 01:14:32;;;;;;;41.05;36.72;;;22.60;99.90;;;;;;4935954;29;20504;-80
2023/07/02 01:16:59;;;;;;;38.65;34.67;;;22.60;99.90;;;;;;4918533;29;20028;-80
2023/07/02 01:19:44;;;;;;;39.35;35.28;;;22.50;99.90;;;;;;4935842;29;20039;-80
2023/07/02 01:22:10;;;;;;;39.95;35.70;;;22.50;99.90;;;;;;4902996;29;20044;-80
2023/07/02 01:24:38;;;;;;;38.72;34.75;;;22.50;99.90;;;;;;4918857;29;20087;-80
2023/07/02 01:27:04;;;;;;;40.17;36.05;;;22.50;99.90;;;;;;4918804;29;20109;-80
2023/07/02 01:29:31;;;;;;;43.10;38.10;;;22.40;99.90;;;;;;4903387;29;20066;-80
2023/07/02 01:31:57;;;;;;;40.28;36.13;;;22.50;99.90;;;;;;4902774;29;20024;-79
2023/07/02 01:34:23;;;;;;;42.30;38.00;;;22.50;99.90;;;;;;4935666;29;21115;-80
2023/07/02 01:36:49;;;;;;;39.93;36.00;;;22.40;99.90;;;;;;4925802;29;20027;-80
2023/07/02 01:39:16;;;;;;;42.85;38.30;;;22.40;99.90;;;;;;4937829;29;20027;-80
2023/07/02 01:41:49;;;;;;;39.47;35.37;;;22.40;99.90;;;;;;4942473;29;20059;-80
2023/07/02 01:44:15;;;;;;;41.08;36.67;;;22.30;99.90;;;;;;4937007;29;20051;-80
2023/07/02 01:46:41;;;;;;;37.63;33.80;;;22.30;99.90;;;;;;4919449;29;20028;-80
2023/07/02 01:49:07;;;;;;;40.93;36.63;;;22.30;99.90;;;;;;4919787;29;20031;-80
2023/07/02 01:51:34;;;;;;;41.97;37.10;;;22.30;99.90;;;;;;4936464;29;20039;-80
2023/07/02 01:54:00;;;;;;;41.65;37.20;;;22.30;99.90;;;;;;4917344;29;20064;-81
2023/07/02 01:56:26;;;;;;;41.28;37.08;;;22.30;99.90;;;;;;4938236;29;20031;-80
2023/07/02 01:58:53;;;;;;;40.13;35.87;;;22.30;99.90;;;;;;4954927;29;20508;-80
2023/07/02 02:01:19;;;;;;;40.97;36.72;;;22.30;99.90;;;;;;4938418;29;20289;-80
2023/07/02 02:03:44;;;;;;;43.87;39.30;;;22.30;99.90;;;;;;4938477;29;20039;-80
2023/07/02 02:06:10;;;;;;;42.43;38.07;;;22.30;99.90;;;;;;4926423;29;20028;-80
2023/07/02 02:08:36;;;;;;;43.77;39.07;;;22.30;99.90;;;;;;4918751;29;20087;-80
2023/07/02 02:11:02;;;;;;;41.67;37.33;;;22.30;99.90;;;;;;4918971;29;20445;-80
2023/07/02 02:13:27;;;;;;;44.70;40.07;;;22.20;99.90;;;;;;4919602;29;20031;-80
2023/07/02 02:15:54;;;;;;;43.53;39.03;;;22.20;99.90;;;;;;4918988;29;20023;-80
2023/07/02 02:18:20;;;;;;;40.95;36.83;;;22.10;99.90;;;;;;4918889;29;20046;-81
2023/07/02 02:20:46;;;;;;;43.20;38.70;;;22.20;99.90;;;;;;4935813;29;20031;-81
2023/07/02 02:23:11;;;;;;;41.95;37.47;;;22.10;99.90;;;;;;4918410;29;20110;-81
2023/07/02 02:25:37;;;;;;;44.23;37.57;;;22.10;99.90;;;;;;4935774;29;20444;-80
2023/07/02 02:28:03;;;;;;;40.33;36.03;;;22.20;99.90;;;;;;4918618;29;20031;-80
2023/07/02 02:30:29;;;;;;;42.83;38.43;;;22.20;99.90;;;;;;4935299;29;20078;-81
2023/07/02 02:32:55;;;;;;;41.80;37.63;;;22.10;99.90;;;;;;4918107;29;20027;-81
2023/07/02 02:35:22;;;;;;;43.78;39.17;;;22.20;99.90;;;;;;4902209;29;20555;-80
2023/07/02 02:37:49;;;;;;;43.10;38.28;;;22.10;99.90;;;;;;4918362;29;20406;-80
2023/07/02 02:40:15;;;;;;;44.80;40.20;;;22.10;99.90;;;;;;4917888;29;20035;-79
2023/07/02 02:42:41;;;;;;;42.50;38.03;;;22.10;99.90;;;;;;4935252;29;20028;-81
2023/07/02 02:45:08;;;;;;;44.43;39.87;;;22.10;99.90;;;;;;4899571;29;20107;-80
2023/07/02 02:47:34;;;;;;;46.97;41.90;;;22.10;99.90;;;;;;4922441;29;20051;-80
2023/07/02 02:50:01;;;;;;;45.67;40.78;;;22.10;99.90;;;;;;4921770;29;20035;-80
2023/07/02 02:52:27;;;;;;;43.83;39.30;;;22.10;99.90;;;;;;4917951;29;20493;-80
2023/07/02 02:54:52;;;;;;;44.80;40.37;;;22.00;99.90;;;;;;4917273;29;20028;-80
2023/07/02 02:57:18;;;;;;;47.97;42.80;;;22.00;99.90;;;;;;4898786;29;20039;-80
2023/07/02 02:59:44;;;;;;;45.50;41.00;;;22.00;99.90;;;;;;4917591;29;20031;-80
2023/07/02 03:02:10;;;;;;;46.10;41.40;;;22.00;99.90;;;;;;4901608;29;20114;-80
2023/07/02 03:04:39;;;;;;;48.47;42.83;;;22.00;99.90;;;;;;4917900;29;20456;-80
2023/07/02 03:07:07;;;;;;;42.20;37.92;;;22.00;99.90;;;;;;4917674;29;20035;-79
2023/07/02 03:09:33;;;;;;;44.78;40.25;;;22.00;99.90;;;;;;4917796;29;20035;-80
2023/07/02 03:11:59;;;;;;;45.17;40.42;;;21.90;99.90;;;;;;4901736;29;20107;-80
2023/07/02 03:14:25;;;;;;;46.67;41.70;;;21.80;99.90;;;;;;4934830;29;20048;-80
2023/07/02 03:16:51;;;;;;;43.17;38.47;;;21.80;99.90;;;;;;4934589;29;20355;-80
2023/07/02 03:19:16;;;;;;;43.50;38.45;;;21.70;99.90;;;;;;4934910;29;20552;-80
2023/07/02 03:21:43;;;;;;;44.80;40.33;;;21.70;99.90;;;;;;4917920;29;20063;-80
2023/07/02 03:24:13;;;;;;;46.75;41.75;;;21.60;99.90;;;;;;4935034;29;20118;-80
2023/07/02 03:26:45;;;;;;;46.55;41.60;;;21.60;99.90;;;;;;4901849;29;20043;-80
2023/07/02 03:29:11;;;;;;;48.67;42.95;;;21.60;99.90;;;;;;4917748;29;20039;-80
2023/07/02 03:31:37;;;;;;;46.03;39.63;;;21.60;99.90;;;;;;4935900;29;20405;-80
2023/07/02 03:34:05;;;;;;;45.83;40.87;;;21.60;99.90;;;;;;4938320;29;20030;-80
2023/07/02 03:36:31;;;;;;;46.50;39.33;;;21.60;99.90;;;;;;4920476;29;20119;-80
2023/07/02 03:38:58;;;;;;;41.45;37.03;;;21.60;99.90;;;;;;4921079;29;20467;-80
2023/07/02 03:41:23;;;;;;;47.20;41.15;;;21.60;99.90;;;;;;4938168;29;20059;-81
2023/07/02 03:43:49;;;;;;;43.50;38.90;;;21.60;99.90;;;;;;4920836;29;20067;-80
2023/07/02 03:46:15;;;;;;;42.90;38.55;;;21.60;99.90;;;;;;4920767;29;20063;-80
2023/07/02 03:48:41;;;;;;;46.42;40.50;;;21.70;99.90;;;;;;4936912;29;20020;-80
2023/07/02 03:51:07;;;;;;;47.57;41.90;;;21.70;99.90;;;;;;4901573;29;20511;-80
2023/07/02 03:53:33;;;;;;;48.22;42.65;;;21.70;99.90;;;;;;4912427;29;20040;-80
2023/07/02 03:55:59;;;;;;;48.95;43.70;;;21.60;99.90;;;;;;4919852;29;20032;-79
2023/07/02 03:58:25;;;;;;;44.93;40.03;;;21.70;99.90;;;;;;4920206;29;20123;-80
2023/07/02 04:00:51;;;;;;;44.45;39.75;;;21.60;99.90;;;;;;4919699;29;20054;-80
2023/07/02 04:03:17;;;;;;;48.55;42.25;;;21.70;99.90;;;;;;4938096;29;20485;-80
2023/07/02 04:05:43;;;;;;;47.55;42.42;;;21.70;99.90;;;;;;4899818;29;20099;-80
2023/07/02 04:08:10;;;;;;;49.28;43.97;;;21.70;99.90;;;;;;4915808;29;20032;-79
2023/07/02 04:10:36;;;;;;;48.92;43.70;;;21.70;99.90;;;;;;4936960;29;20035;-80
2023/07/02 04:13:02;;;;;;;43.87;39.27;;;21.70;99.90;;;;;;4937922;29;20384;-80
2023/07/02 04:15:28;;;;;;;45.13;40.07;;;21.70;99.90;;;;;;5002825;23;20129;-79
2023/07/02 04:17:54;;;;;;;44.40;39.63;;;21.70;99.90;;;;;;4963551;28;20066;-79
2023/07/02 04:20:20;;;;;;;44.97;40.30;;;21.60;99.90;;;;;;4957585;28;20062;-79
2023/07/02 04:22:47;;;;;;;47.43;42.47;;;21.70;99.90;;;;;;4989521;28;20042;-79
2023/07/02 04:25:17;;;;;;;47.97;42.83;;;21.70;99.90;;;;;;4956651;28;20158;-79
2023/07/02 04:27:44;;;;;;;47.25;41.50;;;21.70;99.90;;;;;;4963774;28;20023;-80
2023/07/02 04:30:14;;;;;;;49.08;41.90;;;21.70;99.90;;;;;;4969188;28;20479;-79
2023/07/02 04:32:40;;;;;;;49.25;40.42;;;21.80;99.90;;;;;;4966496;28;20019;-80
2023/07/02 04:35:07;;;;;;;50.58;44.78;;;21.70;99.90;;;;;;4970921;28;20035;-80
2023/07/02 04:37:34;;;;;;;49.40;44.15;;;21.80;99.90;;;;;;4955023;28;20027;-79
2023/07/02 04:40:02;;;;;;;53.65;46.75;;;21.80;99.90;;;;;;4961554;28;20035;-79
2023/07/02 04:42:28;;;;;;;50.20;43.10;;;21.80;99.90;;;;;;4970403;28;20043;-79
2023/07/02 04:44:54;;;;;;;50.37;43.93;;;21.80;99.90;;;;;;4951960;29;20038;-79
2023/07/02 04:47:20;;;;;;;47.20;41.53;;;21.90;99.90;;;;;;4965246;28;20028;-79
2023/07/02 04:49:46;;;;;;;48.17;43.13;;;21.90;99.90;;;;;;4949280;28;20081;-79
2023/07/02 04:52:12;;;;;;;49.13;42.67;;;22.00;99.90;;;;;;4956322;28;20035;-80
2023/07/02 04:54:38;;;;;;;50.10;43.00;;;22.00;99.90;;;;;;4958380;28;20435;-79
2023/07/02 04:57:04;;;;;;;48.07;43.07;;;22.10;99.90;;;;;;4943248;28;20089;-79
2023/07/02 04:59:30;;;;;;;46.30;41.25;;;22.10;99.90;;;;;;4965405;28;20372;-79
2023/07/02 05:01:56;;;;;;;46.13;41.20;;;22.20;99.90;;;;;;4957353;28;20082;-79
2023/07/02 05:04:21;;;;;;;45.63;40.75;;;22.20;99.90;;;;;;4970313;28;20039;-79
2023/07/02 05:06:47;;;;;;;47.63;42.53;;;22.20;99.90;;;;;;4958176;28;20114;-79
2023/07/02 05:09:13;;;;;;;48.17;41.53;;;22.30;99.90;;;;;;4966271;28;20039;-79
2023/07/02 05:11:39;;;;;;;46.90;41.80;;;22.30;99.90;;;;;;4947578;28;20491;-79
2023/07/02 05:14:05;;;;;;;46.90;41.77;;;22.40;99.90;;;;;;4943531;29;20507;-79
2023/07/02 05:16:31;;;;;;;49.23;41.17;;;22.40;99.90;;;;;;4942961;28;20035;-79
2023/07/02 05:18:56;;;;;;;48.53;42.50;;;22.40;99.90;;;;;;4969909;28;20031;-79
2023/07/02 05:21:22;;;;;;;47.23;42.13;;;22.40;99.90;;;;;;4962759;28;20446;-79
2023/07/02 05:23:48;;;;;;;45.50;40.60;;;22.50;99.90;;;;;;4961562;28;20042;-79
2023/07/02 05:26:14;;;;;;;53.53;44.83;;;22.50;99.90;;;;;;4968999;28;20117;-79
2023/07/02 05:28:40;;;;;;;47.60;42.40;;;22.50;99.90;;;;;;4957823;28;20186;-79
2023/07/02 05:31:06;;;;;;;47.27;42.07;;;22.50;99.90;;;;;;4965531;28;20122;-79
2023/07/02 05:33:33;;;;;;;47.10;41.57;;;22.50;99.90;;;;;;4956146;28;20517;-79
2023/07/02 05:35:58;;;;;;;49.22;42.03;;;22.50;99.90;;;;;;4943370;29;20468;-79
2023/07/02 05:38:24;;;;;;;48.77;41.13;;;22.60;99.90;;;;;;4972482;28;20034;-79
2023/07/02 05:40:50;;;;;;;45.57;37.77;;;22.70;99.90;;;;;;4957248;28;20027;-79
2023/07/02 05:43:16;;;;;;;48.50;40.90;;;22.70;99.90;;;;;;4943529;28;20679;-79
2023/07/02 05:45:42;;;;;;;46.70;41.53;;;22.80;99.90;;;;;;4967190;28;20302;-80
2023/07/02 05:48:08;;;;;;;45.70;40.67;;;22.80;99.90;;;;;;4964631;28;20037;-80
2023/07/02 05:50:34;;;;;;;45.37;39.63;;;22.90;99.90;;;;;;4947227;28;20022;-79
2023/07/02 05:52:59;;;;;;;45.93;40.90;;;23.00;99.90;;;;;;4958639;28;20554;-80
2023/07/02 05:55:25;;;;;;;45.88;40.85;;;23.10;99.90;;;;;;4965776;28;20038;-80
2023/07/02 05:57:51;;;;;;;47.13;42.03;;;23.10;99.90;;;;;;4947953;28;20039;-80
2023/07/02 06:00:17;;;;;;;49.10;41.33;;;23.10;99.90;;;;;;4929094;29;20122;-83
2023/07/02 06:02:46;;;;;;;53.40;40.80;;;23.10;99.90;;;;;;4937233;28;20108;-85
2023/07/02 06:05:11;;;;;;;47.45;40.95;;;23.10;99.90;;;;;;4924621;28;20074;-86
2023/07/02 06:07:37;;;;;;;50.00;40.33;;;23.10;99.90;;;;;;4938695;29;20436;-85
2023/07/02 06:10:03;;;;;;;44.53;38.93;;;23.10;99.90;;;;;;4947674;28;20038;-85
2023/07/02 06:12:29;;;;;;;48.45;41.53;;;23.20;99.90;;;;;;4951102;29;20019;-90
2023/07/02 06:14:55;;;;;;;45.90;40.92;;;23.20;99.90;;;;;;4941323;28;20035;-87
2023/07/02 06:17:22;;;;;;;47.70;41.10;;;23.30;99.90;;;;;;4935981;28;20513;-85
2023/07/02 06:19:48;;;;;;;;;;;23.30;99.90;;;;;;4961162;28;20483;-81
2023/07/02 06:22:14;;;;;;;49.72;39.67;;;23.40;99.90;;;;;;4940925;28;19910;-82
2023/07/02 06:24:40;;;;;;;46.53;41.63;;;23.40;99.90;;;;;;4974439;28;20031;-82
2023/07/02 06:27:05;;;;;;;51.67;42.73;;;23.40;99.90;;;;;;4969017;28;20027;-82
2023/07/02 06:29:31;;;;;;;49.93;44.53;;;23.50;99.90;;;;;;4964733;28;20027;-82
2023/07/02 06:31:57;;;;;;;53.57;43.30;;;23.60;99.90;;;;;;4955699;28;20058;-81
2023/07/02 06:34:23;;;;;;;49.97;43.33;;;23.60;99.90;;;;;;4951816;29;20035;-82
2023/07/02 06:36:48;;;;;;;46.77;41.67;;;23.60;99.90;;;;;;4920770;29;20503;-82
2023/07/02 06:39:14;;;;;;;47.43;42.13;;;23.60;99.90;;;;;;4953832;29;20038;-82
2023/07/02 06:41:40;;;;;;;47.53;42.13;;;23.70;99.90;;;;;;4921139;29;20069;-82
2023/07/02 06:44:06;;;;;;;44.10;39.27;;;23.80;99.90;;;;;;4965797;28;20026;-81
2023/07/02 06:46:32;;;;;;;46.20;41.17;;;23.90;99.90;;;;;;4939660;29;20484;-83
2023/07/02 06:48:58;;;;;;;47.03;42.23;;;23.90;99.90;;;;;;4936877;29;20485;-82
2023/07/02 06:51:26;;;;;;;45.93;40.07;;;23.90;99.90;;;;;;4953906;29;20031;-81
2023/07/02 06:53:51;;;;;;;46.88;41.33;;;23.90;99.90;;;;;;4936990;29;20035;-82
2023/07/02 06:56:17;;;;;;;46.43;41.47;;;23.90;99.90;;;;;;4938202;28;20041;-82
2023/07/02 06:58:43;;;;;;;47.23;42.17;;;24.00;99.90;;;;;;4940428;29;20035;-82
2023/07/02 07:01:09;;;;;;;47.93;42.77;;;24.00;99.90;;;;;;4953928;29;20083;-82
2023/07/02 07:03:35;;;;;;;50.10;43.33;;;24.10;99.90;;;;;;4953737;29;20032;-81
2023/07/02 07:06:02;;;;;;;51.08;43.53;;;24.00;99.90;;;;;;4936884;29;20468;-82
2023/07/02 07:08:28;;;;;;;49.13;43.95;;;24.10;99.90;;;;;;4954119;28;20596;-82
2023/07/02 07:10:54;;;;;;;50.07;40.87;;;24.10;99.90;;;;;;4977315;28;20035;-82
2023/07/02 07:13:20;;;;;;;45.87;40.90;;;24.10;99.90;;;;;;4976662;28;20081;-83
2023/07/02 07:15:46;;;;;;;43.47;38.93;;;24.20;99.90;;;;;;4959505;28;20515;-82
2023/07/02 07:18:12;;;;;;;47.43;39.87;;;24.20;99.90;;;;;;4939944;29;20027;-83
2023/07/02 07:20:40;;;;;;;46.23;39.73;;;24.30;99.90;;;;;;4957108;29;20290;-83
2023/07/02 07:23:06;;;;;;;45.42;40.70;;;24.30;99.90;;;;;;4944154;28;20067;-83
2023/07/02 07:25:32;;;;;;;50.73;38.37;;;24.40;99.90;;;;;;4971600;28;20023;-87
2023/07/02 07:27:59;;;;;;;42.13;37.53;;;24.50;99.90;;;;;;4939489;29;20863;-83
2023/07/02 07:30:25;;;;;;;41.58;36.95;;;24.50;99.90;;;;;;4939730;29;20063;-81
2023/07/02 07:32:55;;;;;;;43.63;38.13;;;24.50;99.90;;;;;;4964855;28;20074;-83
2023/07/02 07:35:22;;;;;;;43.03;38.38;;;24.60;99.90;;;;;;4976500;28;20050;-86
2023/07/02 07:37:48;;;;;;;42.75;37.95;;;24.60;99.90;;;;;;4958466;28;20022;-81
2023/07/02 07:40:14;;;;;;;44.42;39.47;;;24.70;99.90;;;;;;4976240;28;20019;-81
2023/07/02 07:42:42;;;;;;;42.87;37.97;;;24.80;99.90;;;;;;4972653;28;20027;-82
2023/07/02 07:45:09;;;;;;;42.40;37.92;;;24.80;99.90;;;;;;4968886;28;20494;-81
2023/07/02 07:47:35;;;;;;;41.28;36.70;;;24.90;99.90;;;;;;4974823;28;20022;-81
2023/07/02 07:50:01;;;;;;;43.77;39.00;;;24.90;99.90;;;;;;4965789;28;20027;-81
2023/07/02 07:52:27;;;;;;;41.23;36.67;;;25.00;99.90;;;;;;4957007;28;20492;-80
2023/07/02 07:54:53;;;;;;;39.33;35.13;;;25.00;99.90;;;;;;4958315;28;20524;-80
2023/07/02 07:57:19;;;;;;;39.60;35.43;;;25.10;99.90;;;;;;4939345;29;20656;-80
2023/07/02 07:59:44;;;;;;;39.57;35.47;;;25.10;99.90;;;;;;4956417;29;20271;-80
2023/07/02 08:02:10;;;;;;;585.60;280.53;;;25.20;99.90;;;;;;4961462;28;20042;-83
2023/07/02 08:04:36;;;;;;;41.70;37.37;;;25.30;99.90;;;;;;4974615;28;20538;-84
2023/07/02 08:07:04;;;;;;;37.27;33.23;;;25.40;99.90;;;;;;4974661;28;20038;-80
2023/07/02 08:09:30;;;;;;;39.10;34.88;;;25.50;99.90;;;;;;4966504;28;20022;-80
2023/07/02 08:11:56;;;;;;;38.23;34.23;;;25.50;99.90;;;;;;4966023;28;20035;-79
2023/07/02 08:14:21;;;;;;;39.17;34.73;;;25.60;99.90;;;;;;4942437;28;20027;-80
2023/07/02 08:16:47;;;;;;;39.93;35.60;;;25.60;99.90;;;;;;4974398;28;20053;-80
2023/07/02 08:19:13;;;;;;;40.57;36.37;;;25.70;99.90;;;;;;4941813;28;20031;-81
2023/07/02 08:21:39;;;;;;;41.13;36.83;;;25.70;99.90;;;;;;4960516;28;20037;-80
2023/07/02 08:24:06;;;;;;;37.70;33.50;;;25.80;99.90;;;;;;4959658;28;20034;-80
2023/07/02 08:26:32;;;;;;;41.70;37.20;;;25.80;99.70;;;;;;4976214;28;20062;-79
2023/07/02 08:28:58;;;;;;;43.80;34.45;;;25.80;99.70;;;;;;4975166;28;20027;-80
2023/07/02 08:31:24;;;;;;;34.50;30.53;;;25.90;99.40;;;;;;4975478;28;20023;-82
2023/07/02 08:33:50;;;;;;;37.97;33.28;;;25.90;99.30;;;;;;4957605;28;20380;-81
2023/07/02 08:36:15;;;;;;;35.87;32.07;;;26.10;99.50;;;;;;4973800;28;20055;-81
2023/07/02 08:38:43;;;;;;;41.10;31.60;;;26.20;98.50;;;;;;4954175;29;20645;-80
2023/07/02 08:41:09;;;;;;;35.20;31.02;;;26.10;98.50;;;;;;4954922;29;20054;-80
2023/07/02 08:43:35;;;;;;;32.47;28.43;;;26.20;98.60;;;;;;4955708;29;20111;-80
2023/07/02 08:46:02;;;;;;;;;;;26.30;98.10;;;;;;4956280;29;20271;-80
2023/07/02 08:48:29;;;;;;;27.65;24.73;;;26.40;95.60;;;;;;4955290;29;19918;-80
2023/07/02 08:50:58;;;;;;;22.23;19.92;;;26.40;96.50;;;;;;4955472;29;20031;-80
2023/07/02 08:53:29;;;;;;;31.40;26.58;;;26.40;95.10;;;;;;4922203;29;20039;-80
2023/07/02 08:55:56;;;;;;;31.50;28.02;;;26.50;95.30;;;;;;4955528;29;20116;-80
2023/07/02 08:58:22;;;;;;;30.23;26.40;;;26.60;96.40;;;;;;4922313;29;20031;-80
2023/07/02 09:01:09;;;;;;;25.00;22.40;;;26.70;96.30;;;;;;4954542;29;20443;-80
2023/07/02 09:03:39;;;;;;;23.13;20.83;;;26.80;93.70;;;;;;4955346;29;20768;-80
2023/07/02 09:06:09;;;;;;;28.85;25.67;;;27.10;94.70;;;;;;4955321;29;20571;-80
2023/07/02 09:08:36;;;;;;;29.10;25.95;;;27.30;93.40;;;;;;4937878;29;20496;-80
2023/07/02 09:11:20;;;;;;;;;;;27.50;93.70;;;;;;4938538;29;20030;-80
2023/07/02 09:13:58;;;;;;;25.05;22.30;;;27.80;92.10;;;;;;4954990;29;19918;-80
2023/07/02 09:16:29;;;;;;;26.30;23.35;;;28.00;92.70;;;;;;4953834;29;20034;-80
2023/07/02 09:19:00;;;;;;;26.80;23.92;;;28.20;91.60;;;;;;4953707;29;20028;-80
2023/07/02 09:21:27;;;;;;;23.02;19.75;;;28.30;89.00;;;;;;4937961;29;20484;-80
2023/07/02 09:23:54;;;;;;;21.10;18.67;;;28.20;86.60;;;;;;4955332;29;20082;-80
2023/07/02 09:26:21;;;;;;;21.67;19.55;;;28.10;86.10;;;;;;4955109;29;20384;-80
2023/07/02 09:28:47;;;;;;;23.90;21.40;;;28.00;87.80;;;;;;4954291;28;20031;-80
2023/07/02 09:31:12;;;;;;;23.13;20.67;;;28.10;87.10;;;;;;4953593;29;20511;-80
2023/07/02 09:33:38;;;;;;;27.67;24.77;;;28.10;87.40;;;;;;4938020;29;20039;-79
2023/07/02 09:36:05;;;;;;;24.50;22.00;;;28.20;86.90;;;;;;4954676;29;20054;-80
2023/07/02 09:38:31;;;;;;;22.98;20.27;;;28.30;87.00;;;;;;4937488;29;20588;-80
2023/07/02 09:40:57;;;;;;;22.70;19.57;;;28.40;86.50;;;;;;4954698;29;20030;-80
2023/07/02 09:43:25;;;;;;;23.98;21.50;;;28.50;87.00;;;;;;4954939;29;20031;-80
2023/07/02 09:45:55;;;;;;;25.65;22.42;;;28.70;87.40;;;;;;4954335;29;20024;-83
2023/07/02 09:48:25;;;;;;;25.13;22.30;;;28.70;86.10;;;;;;4952848;29;20031;-80
2023/07/02 09:50:51;;;;;;;23.27;20.98;;;28.60;84.50;;;;;;4953129;29;20039;-80
2023/07/02 09:53:17;;;;;;;23.92;21.35;;;28.60;85.40;;;;;;4937177;29;20035;-80
2023/07/02 09:55:43;;;;;;;23.97;21.37;;;28.70;84.90;;;;;;4954368;29;20066;-80
2023/07/02 09:58:10;;;;;;;23.83;21.52;;;28.80;84.00;;;;;;4954265;29;20031;-79
2023/07/02 10:00:36;;;;;;;;;;;28.80;82.60;;;;;;4954780;29;20565;-80
2023/07/02 10:03:02;;;;;;;29.33;24.75;;;28.80;84.10;;;;;;4956567;29;20054;-80
2023/07/02 10:05:34;;;;;;;28.98;24.80;;;28.70;83.00;;;;;;4954313;29;20135;-80
2023/07/02 10:08:14;;;;;;;28.85;25.75;;;28.50;82.90;;;;;;4954041;29;20555;-80
2023/07/02 10:10:40;;;;;;;27.00;23.83;;;28.40;83.80;;;;;;4936810;29;20038;-80
2023/07/02 10:13:06;;;;;;;26.63;22.83;;;28.30;83.20;;;;;;4952796;29;20024;-80
2023/07/02 17:36:40;;;;;;;8.13;5.32;;;34.20;55.50;;;;;;4976220;28;20062;-83
2023/07/02 17:39:06;;;;;;;5.25;4.43;;;34.20;54.50;;;;;;4961485;28;20399;-83
2023/07/02 17:41:32;;;;;;;6.38;4.70;;;34.20;54.60;;;;;;4979977;28;20026;-83
2023/07/02 17:43:57;;;;;;;6.13;5.47;;;34.20;55.20;;;;;;4980779;28;20069;-82
2023/07/02 17:46:23;;;;;;;5.80;5.20;;;34.10;55.10;;;;;;4980081;28;20026;-82
2023/07/02 17:48:49;;;;;;;5.38;4.88;;;34.00;55.20;;;;;;4962920;28;20039;-82
2023/07/02 17:51:15;;;;;;;9.30;5.57;;;33.90;55.80;;;;;;4963455;28;20487;-82
2023/07/02 17:53:41;;;;;;;6.35;5.85;;;33.80;55.90;;;;;;4981097;28;20035;-82
2023/07/02 17:56:06;;;;;;;6.53;5.90;;;33.60;56.10;;;;;;4962306;28;20023;-81
2023/07/02 17:58:32;;;;;;;6.80;6.10;;;33.40;56.70;;;;;;4981386;28;20506;-82
2023/07/02 18:00:58;;;;;;;8.88;5.38;;;33.30;56.60;;;;;;4981744;28;20062;-82
2023/07/02 18:03:24;;;;;;;7.65;5.60;;;33.20;57.50;;;;;;4980330;28;20038;-82
2023/07/02 18:05:50;;;;;;;8.07;5.88;;;33.10;58.00;;;;;;4980361;28;20042;-83
2023/07/02 18:08:16;;;;;;;6.80;6.00;;;33.10;57.90;;;;;;4981062;28;20427;-83
2023/07/02 18:10:45;;;;;;;6.25;5.65;;;33.00;58.00;;;;;;4962613;28;20027;-83
2023/07/02 18:13:11;;;;;;;7.03;6.40;;;32.90;58.10;;;;;;4980087;28;20045;-82
2023/07/02 18:15:37;;;;;;;7.70;6.90;;;32.80;58.30;;;;;;4979909;28;20026;-82
2023/07/02 18:18:03;;;;;;;10.82;6.57;;;32.80;58.60;;;;;;4960766;28;20061;-82
2023/07/02 18:20:29;;;;;;;12.00;7.82;;;32.70;59.00;;;;;;4957139;29;20031;-83
2023/07/02 18:22:55;;;;;;;11.02;9.10;;;32.50;58.80;;;;;;4972248;28;20035;-82
2023/07/02 18:25:20;;;;;;;9.25;8.32;;;32.50;59.10;;;;;;4976330;28;20035;-82
2023/07/02 18:28:07;;;;;;;8.07;7.28;;;32.40;59.20;;;;;;4945833;28;20025;-80
2023/07/02 18:30:33;;;;;;;7.95;7.25;;;32.20;60.10;;;;;;4961361;28;20099;-82
2023/07/02 18:32:59;;;;;;;8.05;7.18;;;32.10;60.10;;;;;;4980678;28;20049;-82
2023/07/02 18:35:25;;;;;;;11.57;8.38;;;32.00;60.70;;;;;;4979601;28;20498;-81
2023/07/02 18:37:52;;;;;;;13.05;9.48;;;31.90;60.70;;;;;;4962064;28;20546;-83
2023/07/02 18:40:21;;;;;;;12.43;9.85;;;31.80;61.20;;;;;;4982601;28;20038;-81
2023/07/02 18:42:50;;;;;;;10.40;9.30;;;31.70;61.30;;;;;;4961926;28;20026;-81
2023/07/02 18:45:16;;;;;;;10.25;9.25;;;31.60;62.10;;;;;;4983099;28;20056;-82
2023/07/02 18:47:43;;;;;;;10.18;8.77;;;31.60;62.40;;;;;;4943788;29;20098;-82
2023/07/02 18:50:13;;;;;;;10.15;8.75;;;31.40;62.50;;;;;;4951405;28;20106;-82
2023/07/02 18:52:43;;;;;;;18.92;17.05;;;31.30;63.00;;;;;;4956190;28;20035;-84
2023/07/02 18:55:10;;;;;;;12.30;9.90;;;31.30;63.40;;;;;;4954156;28;20030;-84
2023/07/02 18:57:36;;;;;;;19.20;10.65;;;31.20;63.70;;;;;;4959763;28;20058;-82
2023/07/02 19:00:05;;;;;;;9.55;8.70;;;31.10;64.10;;;;;;4957487;28;20045;-85
2023/07/02 19:02:34;;;;;;;18.90;16.80;;;31.00;64.40;;;;;;4974876;28;20038;-82
2023/07/02 19:05:01;;;;;;;11.93;10.73;;;31.00;64.80;;;;;;4960370;28;20035;-81
2023/07/02 19:07:27;;;;;;;13.90;10.10;;;30.80;64.90;;;;;;4981887;28;20373;-83
2023/07/02 19:09:54;;;;;;;;;;;30.70;64.80;;;;;;4985774;28;20403;-82
2023/07/02 19:12:20;;;;;;;11.75;8.88;;;30.60;65.60;;;;;;4964024;28;19910;-82
2023/07/02 19:14:46;;;;;;;14.50;8.77;;;30.50;66.10;;;;;;4986929;28;20039;-82
2023/07/02 19:17:14;;;;;;;13.45;9.65;;;30.40;66.70;;;;;;4986269;28;20043;-81
2023/07/02 19:19:41;;;;;;;12.43;11.02;;;30.30;66.70;;;;;;4952217;29;20031;-82
2023/07/02 19:22:11;;;;;;;11.30;10.25;;;30.30;66.80;;;;;;4966811;28;20472;-82
2023/07/02 19:24:38;;;;;;;11.50;9.98;;;30.20;67.10;;;;;;4955519;28;20039;-82
2023/07/02 19:27:08;;;;;;;12.73;11.13;;;30.10;67.60;;;;;;4969388;28;20045;-82
2023/07/02 19:29:35;;;;;;;17.92;11.60;;;30.10;68.00;;;;;;4983898;28;20026;-82
2023/07/02 19:32:02;;;;;;;14.68;10.48;;;30.10;68.40;;;;;;4951572;29;20031;-82
2023/07/02 19:34:28;;;;;;;;;;;30.00;68.10;;;;;;4964221;28;20069;-81
2023/07/02 19:36:54;;;;;;;14.77;11.05;;;30.00;68.10;;;;;;4987484;28;19910;-82
2023/07/02 19:39:20;;;;;;;16.58;11.68;;;29.90;68.40;;;;;;4965224;28;20031;-82
2023/07/02 19:41:47;;;;;;;11.57;10.25;;;29.90;69.00;;;;;;4969872;28;20039;-82
2023/07/02 19:44:15;;;;;;;12.95;11.65;;;29.80;69.10;;;;;;4969497;28;20030;-82
2023/07/02 19:46:41;;;;;;;13.15;10.77;;;29.80;69.20;;;;;;4968877;28;20030;-82
2023/07/02 19:49:09;;;;;;;14.55;11.77;;;29.80;69.50;;;;;;4953051;28;20034;-82
2023/07/02 19:51:35;;;;;;;17.35;12.75;;;29.80;69.50;;;;;;4970004;28;20031;-82